createdAt,value
2023-12-03T00:03:27.291Z,-2.40
2023-12-03T00:07:34.209Z,-2.50
2023-12-03T00:11:40.108Z,-2.50
2023-12-03T00:15:45.842Z,-2.50
2023-12-03T00:19:51.446Z,-2.60
2023-12-03T00:23:56.997Z,-2.60
2023-12-03T00:28:02.642Z,-2.70
2023-12-03T00:32:08.695Z,-2.70
2023-12-03T00:36:14.437Z,-2.80
2023-12-03T00:40:19.964Z,-2.80
2023-12-03T00:44:25.993Z,-2.90
2023-12-03T00:48:31.684Z,-3.00
2023-12-03T00:52:37.356Z,-3.00
2023-12-03T00:56:42.870Z,-3.10
2023-12-03T01:00:48.734Z,-3.10
2023-12-03T01:04:54.448Z,-3.10
2023-12-03T01:09:00.044Z,-3.20
2023-12-03T01:13:05.661Z,-3.30
2023-12-03T01:17:11.187Z,-3.30
2023-12-03T01:21:16.851Z,-3.40
2023-12-03T01:25:22.710Z,-3.40
2023-12-03T01:29:29.449Z,-3.40
2023-12-03T01:33:35.294Z,-3.50
2023-12-03T01:37:40.871Z,-3.50
2023-12-03T01:41:46.342Z,-3.60
2023-12-03T01:45:51.993Z,-3.60
2023-12-03T01:50:08.311Z,-3.70
2023-12-03T01:54:14.219Z,-3.60
2023-12-03T01:58:19.948Z,-3.60
2023-12-03T02:02:25.633Z,-3.70
2023-12-03T02:06:31.310Z,-3.80
2023-12-03T02:10:36.978Z,-3.70
2023-12-03T02:14:42.580Z,-3.80
2023-12-03T02:18:48.437Z,-3.80
2023-12-03T02:23:01.691Z,-3.80
2023-12-03T02:27:07.517Z,-3.80
2023-12-03T02:31:13.175Z,-3.80
2023-12-03T02:35:18.774Z,-3.80
2023-12-03T02:39:24.395Z,-3.90
2023-12-03T02:43:29.999Z,-3.90
2023-12-03T02:47:35.874Z,-4.00
2023-12-03T02:51:41.505Z,-4.00
2023-12-03T02:55:47.231Z,-4.00
2023-12-03T02:59:52.712Z,-4.10
2023-12-03T03:03:58.362Z,-4.20
2023-12-03T03:08:04.051Z,-4.20
2023-12-03T03:12:09.675Z,-4.20
2023-12-03T03:16:15.418Z,-4.30
2023-12-03T03:20:23.053Z,-4.30
2023-12-03T03:24:29.388Z,-4.30
2023-12-03T03:28:34.992Z,-4.40
2023-12-03T03:32:40.638Z,-4.40
2023-12-03T03:36:46.416Z,-4.50
2023-12-03T03:40:51.942Z,-4.50
2023-12-03T03:44:57.490Z,-4.40
2023-12-03T03:49:03.216Z,-4.40
2023-12-03T03:53:08.828Z,-4.50
2023-12-03T03:57:14.346Z,-4.50
2023-12-03T04:01:19.953Z,-4.50
2023-12-03T04:05:25.617Z,-4.60
2023-12-03T04:09:33.364Z,-4.60
2023-12-03T04:13:38.955Z,-4.60
2023-12-03T04:17:44.725Z,-4.60
2023-12-03T04:21:50.407Z,-4.60
2023-12-03T04:25:56.006Z,-4.70
2023-12-03T04:30:01.705Z,-4.60
2023-12-03T04:34:07.453Z,-4.60
2023-12-03T04:38:13.852Z,-4.60
2023-12-03T04:42:19.443Z,-4.60
2023-12-03T04:46:25.009Z,-4.60
2023-12-03T04:50:30.535Z,-4.60
2023-12-03T04:54:36.399Z,-4.60
2023-12-03T04:58:43.270Z,-4.50
2023-12-03T05:02:48.941Z,-4.50
2023-12-03T05:06:55.760Z,-4.50
2023-12-03T05:11:06.849Z,-4.40
2023-12-03T05:15:12.488Z,-4.40
2023-12-03T05:19:18.122Z,-4.40
2023-12-03T05:23:24.422Z,-4.30
2023-12-03T05:27:30.080Z,-4.30
2023-12-03T05:31:35.652Z,-4.30
2023-12-03T05:35:41.228Z,-4.30
2023-12-03T05:39:46.788Z,-4.30
2023-12-03T05:43:53.290Z,-4.30
2023-12-03T05:47:58.924Z,-4.20
2023-12-03T05:52:04.777Z,-4.20
2023-12-03T05:56:11.148Z,-4.20
2023-12-03T06:00:17.466Z,-4.10
2023-12-03T06:04:23.133Z,-4.10
2023-12-03T06:08:28.998Z,-4.00
2023-12-03T06:12:34.525Z,-4.00
2023-12-03T06:16:40.121Z,-3.90
2023-12-03T06:20:45.592Z,-3.80
2023-12-03T06:24:51.327Z,-3.80
2023-12-03T06:28:57.364Z,-3.80
2023-12-03T06:33:03.134Z,-3.80
2023-12-03T06:37:09.422Z,-3.80
2023-12-03T06:41:15.988Z,-3.80
2023-12-03T06:45:21.603Z,-3.80
2023-12-03T06:49:27.213Z,-3.70
2023-12-03T06:53:32.800Z,-3.70
2023-12-03T06:57:38.288Z,-3.70
2023-12-03T07:01:43.892Z,-3.60
2023-12-03T07:05:50.091Z,-3.60
2023-12-03T07:09:55.668Z,-3.60
2023-12-03T07:14:01.618Z,-3.60
2023-12-03T07:18:07.190Z,-3.50
2023-12-03T07:22:13.216Z,-3.60
2023-12-03T07:26:18.758Z,-3.50
2023-12-03T07:30:25.346Z,-3.50
2023-12-03T07:34:31.171Z,-3.40
2023-12-03T07:38:36.698Z,-3.40
2023-12-03T07:42:42.342Z,-3.40
2023-12-03T07:46:48.433Z,-3.30
2023-12-03T07:50:53.972Z,-3.20
2023-12-03T07:54:59.636Z,-3.20
2023-12-03T07:59:05.727Z,-3.10
2023-12-03T08:03:11.328Z,-3.00
2023-12-03T08:07:17.667Z,-3.00
2023-12-03T08:11:23.391Z,-3.00
2023-12-03T08:15:29.027Z,-2.90
2023-12-03T08:19:34.976Z,-2.90
2023-12-03T08:23:41.683Z,-2.80
2023-12-03T08:27:47.609Z,-2.80
2023-12-03T08:31:53.232Z,-2.70
2023-12-03T08:35:58.896Z,-2.70
2023-12-03T08:40:06.222Z,-2.60
2023-12-03T08:44:12.064Z,-2.70
2023-12-03T08:48:17.776Z,-2.60
2023-12-03T08:52:23.319Z,-2.60
2023-12-03T08:56:29.049Z,-2.60
2023-12-03T09:00:34.669Z,-2.60
2023-12-03T09:04:40.223Z,-2.50
2023-12-03T09:08:45.672Z,-2.50
2023-12-03T09:12:51.511Z,-2.30
2023-12-03T09:16:56.931Z,-2.30
2023-12-03T09:21:02.401Z,-2.20
2023-12-03T09:25:08.069Z,-2.20
2023-12-03T09:29:13.531Z,-2.20
2023-12-03T09:33:18.991Z,-2.30
2023-12-03T09:37:24.347Z,-2.40
2023-12-03T09:41:35.893Z,-2.40
2023-12-03T09:45:41.709Z,-2.30
2023-12-03T09:49:48.471Z,-2.20
2023-12-03T09:53:55.332Z,-2.00
2023-12-03T09:58:00.884Z,-1.90
2023-12-03T10:02:10.012Z,-1.90
2023-12-03T10:06:17.741Z,-1.90
2023-12-03T10:10:26.315Z,-1.80
2023-12-03T10:14:31.792Z,-1.80
2023-12-03T10:18:37.576Z,-1.70
2023-12-03T10:22:42.968Z,-1.60
2023-12-03T10:26:52.596Z,-1.50
2023-12-03T10:30:57.936Z,-1.50
2023-12-03T10:35:03.813Z,-1.30
2023-12-03T10:39:09.809Z,-1.30
2023-12-03T10:43:15.197Z,-1.20
2023-12-03T10:47:21.111Z,-1.30
2023-12-03T10:51:26.528Z,-1.20
2023-12-03T10:55:32.938Z,-1.30
2023-12-03T10:59:41.429Z,-1.20
2023-12-03T11:03:55.362Z,-1.10
2023-12-03T11:08:03.070Z,-1.00
2023-12-03T11:12:08.950Z,-1.00
2023-12-03T11:16:14.862Z,-1.00
2023-12-03T11:20:24.930Z,-1.00
2023-12-03T11:24:36.161Z,-0.90
2023-12-03T11:28:57.257Z,-0.80
2023-12-03T11:33:04.100Z,-0.70
2023-12-03T11:37:10.546Z,-0.70
2023-12-03T11:41:16.167Z,-0.70
2023-12-03T11:45:27.317Z,-0.70
2023-12-03T11:49:37.748Z,-0.70
2023-12-03T11:54:01.964Z,-0.60
2023-12-03T11:58:07.512Z,-0.60
2023-12-03T12:02:15.277Z,-0.60
2023-12-03T12:06:28.285Z,-0.70
2023-12-03T12:10:34.499Z,-0.70
2023-12-03T12:14:40.193Z,-0.60
2023-12-03T12:18:47.284Z,-0.60
2023-12-03T12:22:53.738Z,-0.50
2023-12-03T12:26:59.884Z,-0.50
2023-12-03T12:31:06.266Z,-0.50
2023-12-03T12:35:11.663Z,-0.40
2023-12-03T12:39:27.758Z,-0.40
2023-12-03T12:43:33.202Z,-0.40
2023-12-03T12:47:40.873Z,-0.30
2023-12-03T12:51:46.490Z,-0.30
2023-12-03T12:55:51.979Z,-0.30
2023-12-03T12:59:58.404Z,-0.30
2023-12-03T13:04:07.944Z,-0.30
2023-12-03T13:08:13.518Z,-0.20
2023-12-03T13:12:19.054Z,-0.30
2023-12-03T13:16:24.946Z,-0.30
2023-12-03T13:20:31.894Z,-0.30
2023-12-03T13:24:38.448Z,-0.40
2023-12-03T13:28:45.545Z,-0.40
2023-12-03T13:32:52.192Z,-0.40
2023-12-03T13:36:57.689Z,-0.40
2023-12-03T13:41:03.368Z,-0.50
2023-12-03T13:45:08.989Z,-0.50
2023-12-03T13:49:14.595Z,-0.50
2023-12-03T13:53:20.544Z,-0.50
2023-12-03T13:57:26.838Z,-0.40
2023-12-03T14:01:32.608Z,-0.40
2023-12-03T14:05:38.086Z,-0.30
2023-12-03T14:09:44.799Z,-0.30
2023-12-03T14:13:50.316Z,-0.20
2023-12-03T14:17:55.851Z,-0.20
2023-12-03T14:22:01.326Z,-0.20
2023-12-03T14:26:07.182Z,-0.20
2023-12-03T14:30:13.041Z,-0.20
2023-12-03T14:34:18.507Z,-0.10
2023-12-03T14:38:23.817Z,-0.10
2023-12-03T14:42:29.392Z,-0.10
2023-12-03T14:46:34.938Z,-0.10
2023-12-03T14:50:40.405Z,-0.10
2023-12-03T14:54:45.850Z,-0.10
2023-12-03T14:58:51.534Z,-0.10
2023-12-03T15:02:57.073Z,-0.10
2023-12-03T15:07:02.747Z,-0.10
2023-12-03T15:11:08.238Z,-0.10
2023-12-03T15:15:14.437Z,-0.10
2023-12-03T15:19:20.266Z,-0.10
2023-12-03T15:23:25.921Z,-0.10
2023-12-03T15:27:31.456Z,-0.10
2023-12-03T15:31:37.390Z,-0.10
2023-12-03T15:35:42.848Z,-0.10
2023-12-03T15:39:48.768Z,-0.10
2023-12-03T15:43:54.148Z,-0.10
2023-12-03T15:47:59.883Z,-0.10
2023-12-03T15:52:05.582Z,-0.20
2023-12-03T15:56:11.559Z,-0.20
2023-12-03T16:00:17.216Z,-0.20
2023-12-03T16:04:22.772Z,-0.30
2023-12-03T16:08:28.149Z,-0.30
2023-12-03T16:12:33.631Z,-0.20
2023-12-03T16:16:39.056Z,-0.30
2023-12-03T16:20:44.707Z,-0.30
2023-12-03T16:24:50.142Z,-0.30
2023-12-03T16:28:55.914Z,-0.30
2023-12-03T16:33:01.335Z,-0.30
2023-12-03T16:37:06.709Z,-0.30
2023-12-03T16:41:14.920Z,-0.40
2023-12-03T16:45:20.370Z,-0.40
2023-12-03T16:49:26.222Z,-0.40
2023-12-03T16:53:32.745Z,-0.40
2023-12-03T16:57:38.152Z,-0.40
2023-12-03T17:01:43.547Z,-0.30
2023-12-03T17:05:48.878Z,-0.40
2023-12-03T17:09:54.480Z,-0.40
2023-12-03T17:13:59.889Z,-0.30
2023-12-03T17:18:06.940Z,-0.30
2023-12-03T17:22:12.554Z,-0.30
2023-12-03T17:26:17.954Z,-0.20
2023-12-03T17:30:23.478Z,-0.20
2023-12-03T17:34:29.039Z,-0.20
2023-12-03T17:38:34.636Z,-0.20
2023-12-03T17:42:41.513Z,-0.20
2023-12-03T17:46:46.959Z,-0.20
2023-12-03T17:50:54.236Z,-0.20
2023-12-03T17:55:00.688Z,-0.20
2023-12-03T17:59:06.081Z,-0.20
2023-12-03T18:03:13.796Z,-0.10
2023-12-03T18:07:19.220Z,-0.10
2023-12-03T18:11:25.036Z,-0.10
2023-12-03T18:15:33.812Z,-0.10
2023-12-03T18:19:40.090Z,-0.10
2023-12-03T18:23:46.959Z,-0.10
2023-12-03T18:27:52.981Z,-0.10
2023-12-03T18:31:58.779Z,-0.10
2023-12-03T18:36:13.591Z,0.00
2023-12-03T18:40:18.978Z,0.00
2023-12-03T18:44:24.475Z,0.00
2023-12-03T18:48:30.565Z,0.00
2023-12-03T18:52:37.953Z,0.00
2023-12-03T18:56:43.762Z,0.00
2023-12-03T19:00:49.807Z,0.00
2023-12-03T19:04:55.290Z,0.00
2023-12-03T19:09:00.905Z,0.00
2023-12-03T19:13:13.808Z,0.10
2023-12-03T19:17:22.555Z,0.10
2023-12-03T19:21:28.625Z,0.10
2023-12-03T19:25:34.258Z,0.10
2023-12-03T19:29:39.882Z,0.10
2023-12-03T19:33:45.569Z,0.10
2023-12-03T19:37:51.131Z,0.10
2023-12-03T19:41:56.669Z,0.10
2023-12-03T19:46:02.288Z,0.10
2023-12-03T19:50:08.218Z,0.20
2023-12-03T19:54:13.741Z,0.20
2023-12-03T19:58:20.062Z,0.20
2023-12-03T20:02:25.661Z,0.30
2023-12-03T20:06:31.254Z,0.30
2023-12-03T20:10:37.192Z,0.30
2023-12-03T20:14:42.843Z,0.30
2023-12-03T20:18:49.223Z,0.30
2023-12-03T20:22:54.752Z,0.30
2023-12-03T20:27:00.646Z,0.40
2023-12-03T20:31:08.910Z,0.30
2023-12-03T20:35:14.678Z,0.40
2023-12-03T20:39:19.980Z,0.40
2023-12-03T20:43:26.127Z,0.40
2023-12-03T20:47:31.664Z,0.40
2023-12-03T20:51:37.321Z,0.40
2023-12-03T20:55:42.940Z,0.40
2023-12-03T20:59:48.783Z,0.40
2023-12-03T21:03:54.370Z,0.50
2023-12-03T21:07:59.927Z,0.50
2023-12-03T21:12:05.690Z,0.50
2023-12-03T21:16:11.381Z,0.50
2023-12-03T21:20:17.049Z,0.50
2023-12-03T21:24:22.610Z,0.50
2023-12-03T21:28:28.120Z,0.50
2023-12-03T21:32:33.829Z,0.60
2023-12-03T21:36:39.425Z,0.50
2023-12-03T21:40:45.017Z,0.50
2023-12-03T21:44:51.020Z,0.50
2023-12-03T21:48:57.547Z,0.50
2023-12-03T21:53:03.143Z,0.50
2023-12-03T21:57:08.724Z,0.50
2023-12-03T22:01:14.286Z,0.60
2023-12-03T22:05:19.872Z,0.60
2023-12-03T22:09:25.426Z,0.60
2023-12-03T22:13:31.172Z,0.60
2023-12-03T22:17:37.078Z,0.60
2023-12-03T22:21:42.685Z,0.60
2023-12-03T22:25:48.230Z,0.60
2023-12-03T22:29:57.226Z,0.60
2023-12-03T22:34:09.148Z,0.60
2023-12-03T22:38:14.794Z,0.60
2023-12-03T22:42:20.332Z,0.60
2023-12-03T22:46:25.966Z,0.60
2023-12-03T22:50:32.028Z,0.70
2023-12-03T22:54:37.758Z,0.60
2023-12-03T22:58:43.430Z,0.60
2023-12-03T23:02:49.280Z,0.60
2023-12-03T23:06:54.959Z,0.60
2023-12-03T23:11:00.661Z,0.70
2023-12-03T23:15:07.060Z,0.70
2023-12-03T23:19:13.223Z,0.70
2023-12-03T23:23:18.751Z,0.70
2023-12-03T23:27:24.095Z,0.70
2023-12-03T23:31:29.988Z,0.70
2023-12-03T23:35:36.567Z,0.70
2023-12-03T23:39:42.520Z,0.70
2023-12-03T23:43:47.961Z,0.70
2023-12-03T23:47:53.396Z,0.70
2023-12-03T23:51:58.801Z,0.70
2023-12-03T23:56:04.585Z,0.70
